Time;durP1;ratioP1;P1;durP2;ratioP2;P2;SDS_P1;SDS_P2;PMS_P1;PMS_P2;Temp;Humidity;BMP_temperature;BMP_pressure;BME280_temperature;BME280_humidity;BME280_pressure;Samples;Min_cycle;Max_cycle;Signal;HPM_P1;HPM_P2
2022/11/17 00:00:05;;;;;;;4.30;3.03;;;13.70;99.90;;;;;;4954548;28;20664;-68
2022/11/17 00:02:31;;;;;;;3.23;2.30;;;13.60;99.90;;;;;;4950471;28;20231;-66
2022/11/17 00:04:56;;;;;;;4.77;2.70;;;13.60;99.90;;;;;;4967624;28;20427;-67
2022/11/17 00:07:22;;;;;;;5.87;3.33;;;13.70;99.90;;;;;;4956369;28;20235;-67
2022/11/17 00:09:48;;;;;;;5.20;2.80;;;13.70;99.90;;;;;;4960642;28;20195;-67
2022/11/17 00:14:57;;;;;;;3.70;2.80;;;13.70;99.90;;;;;;4947012;28;20210;-67
2022/11/17 00:17:23;;;;;;;6.13;3.33;;;13.70;99.90;;;;;;4954139;28;20442;-68
2022/11/17 00:22:32;;;;;;;4.00;2.70;;;13.60;99.90;;;;;;4953128;28;20261;-66
2022/11/17 00:24:58;;;;;;;5.50;3.17;;;13.60;99.90;;;;;;4954005;28;20439;-66
2022/11/17 00:27:23;;;;;;;4.40;2.33;;;13.60;99.90;;;;;;4951898;28;20191;-67
2022/11/17 00:29:49;;;;;;;4.10;2.37;;;13.60;99.90;;;;;;4954257;28;20230;-66
2022/11/17 00:35:03;;;;;;;5.00;2.97;;;13.60;99.90;;;;;;4962226;28;20241;-67
2022/11/17 00:37:32;;;;;;;4.43;2.53;;;13.60;99.90;;;;;;4949567;28;20468;-67
2022/11/17 00:39:58;;;;;;;3.40;3.07;;;13.60;99.90;;;;;;4964613;28;20441;-67
2022/11/17 00:42:23;;;;;;;3.23;2.20;;;13.60;99.90;;;;;;4962041;28;20969;-67
2022/11/17 00:44:49;;;;;;;6.00;2.60;;;13.60;99.90;;;;;;4963959;28;20219;-69
2022/11/17 00:47:14;;;;;;;4.10;2.20;;;13.50;99.90;;;;;;4958599;28;20550;-67
2022/11/17 00:49:40;;;;;;;2.83;2.10;;;13.50;99.90;;;;;;4951146;28;20209;-69
2022/11/17 00:52:06;;;;;;;2.73;2.00;;;13.60;99.90;;;;;;4943113;28;20286;-68
2022/11/17 00:54:31;;;;;;;2.70;2.00;;;13.60;99.90;;;;;;4949239;28;20661;-68
2022/11/17 00:56:57;;;;;;;3.70;2.27;;;13.60;99.90;;;;;;4953674;28;20195;-66
2022/11/17 00:59:22;;;;;;;2.80;2.17;;;13.60;99.90;;;;;;4960780;28;20184;-67
2022/11/17 01:01:48;;;;;;;3.80;2.40;;;13.50;99.90;;;;;;4953980;28;20576;-66
2022/11/17 01:04:15;;;;;;;3.03;2.23;;;13.50;99.90;;;;;;4962589;28;20199;-67
2022/11/17 01:06:45;;;;;;;4.50;2.20;;;13.50;99.90;;;;;;4952631;28;20187;-67
2022/11/17 01:09:22;;;;;;;2.60;1.70;;;13.50;99.90;;;;;;4946368;28;20470;-68
2022/11/17 01:11:49;;;;;;;3.43;2.03;;;13.50;99.90;;;;;;4967860;28;20450;-68
2022/11/17 01:14:18;;;;;;;4.23;1.90;;;13.50;99.90;;;;;;4961661;28;20501;-68
2022/11/17 01:16:44;;;;;;;3.97;2.10;;;13.50;99.90;;;;;;4953837;28;20549;-66
2022/11/17 01:19:12;;;;;;;2.77;1.97;;;13.60;99.90;;;;;;4957469;28;20426;-68
2022/11/17 01:21:37;;;;;;;3.30;1.90;;;13.50;99.90;;;;;;4966947;28;20474;-68
2022/11/17 01:24:03;;;;;;;3.03;1.90;;;13.50;99.90;;;;;;4954094;28;20446;-67
2022/11/17 01:26:31;;;;;;;2.20;1.70;;;13.40;99.90;;;;;;4954135;28;20188;-68
2022/11/17 01:28:58;;;;;;;2.13;1.80;;;13.40;99.90;;;;;;4964815;28;20190;-67
2022/11/17 01:31:29;;;;;;;3.00;1.80;;;13.40;99.90;;;;;;4948366;28;20527;-68
2022/11/17 01:33:55;;;;;;;3.00;1.90;;;13.50;99.90;;;;;;4950419;28;20857;-68
2022/11/17 01:36:24;;;;;;;4.00;2.03;;;13.50;99.90;;;;;;4963884;28;20431;-69
2022/11/17 01:38:49;;;;;;;3.97;2.70;;;13.50;99.90;;;;;;4947784;28;20683;-67
2022/11/17 01:41:26;;;;;;;3.07;1.90;;;13.50;99.90;;;;;;4951425;28;20475;-68
2022/11/17 01:43:54;;;;;;;4.83;2.37;;;13.50;99.90;;;;;;4960399;28;20191;-68
2022/11/17 01:46:26;;;;;;;3.57;2.17;;;13.50;99.90;;;;;;4954852;28;20446;-68
2022/11/17 01:48:56;;;;;;;3.60;2.20;;;13.40;99.90;;;;;;4951913;28;20476;-68
2022/11/17 01:51:22;;;;;;;3.23;2.37;;;13.50;99.90;;;;;;4949056;28;20486;-68
2022/11/17 01:53:50;;;;;;;2.73;2.37;;;13.50;99.90;;;;;;4949401;28;20424;-68
2022/11/17 01:56:23;;;;;;;3.70;2.43;;;13.50;99.90;;;;;;4951034;28;20533;-68
2022/11/17 01:59:08;;;;;;;5.10;2.47;;;13.50;99.90;;;;;;4951707;28;20437;-68
2022/11/17 02:01:54;;;;;;;3.50;2.33;;;13.50;99.90;;;;;;4956960;28;20469;-68
2022/11/17 02:04:38;;;;;;;4.73;2.93;;;13.40;99.90;;;;;;4965121;28;20481;-67
2022/11/17 02:07:08;;;;;;;4.10;3.00;;;13.40;99.90;;;;;;4974225;28;20414;-68
2022/11/17 02:09:36;;;;;;;4.03;2.40;;;13.40;99.90;;;;;;4960373;28;20500;-68
2022/11/17 02:12:03;;;;;;;4.13;2.70;;;13.30;99.90;;;;;;4972473;28;20978;-68
2022/11/17 02:14:29;;;;;;;5.10;2.70;;;13.30;99.90;;;;;;4960435;28;20816;-68
2022/11/17 02:16:55;;;;;;;5.50;2.80;;;13.30;99.90;;;;;;4954291;28;20430;-68
2022/11/17 02:19:24;;;;;;;3.80;2.87;;;13.30;99.90;;;;;;4960550;28;20462;-68
2022/11/17 02:22:27;;;;;;;3.87;2.90;;;13.30;99.90;;;;;;4964422;28;20519;-68
2022/11/17 02:25:29;;;;;;;6.13;2.60;;;13.30;99.90;;;;;;4968933;28;20933;-68
2022/11/17 02:28:22;;;;;;;3.53;2.40;;;13.40;99.90;;;;;;4981471;28;20434;-68
2022/11/17 02:31:00;;;;;;;2.63;2.33;;;13.30;99.90;;;;;;4962533;28;20901;-68
2022/11/17 02:33:44;;;;;;;3.90;2.70;;;13.30;99.90;;;;;;4955277;28;20451;-68
2022/11/17 02:36:33;;;;;;;3.47;2.47;;;13.30;99.90;;;;;;4964800;28;20429;-67
2022/11/17 02:39:17;;;;;;;2.90;2.30;;;13.30;99.90;;;;;;4961941;28;20427;-68
2022/11/17 02:41:57;;;;;;;5.63;3.10;;;13.30;99.90;;;;;;4959305;28;20522;-67
2022/11/17 02:44:46;;;;;;;3.73;2.40;;;13.40;99.90;;;;;;4951976;28;20445;-68
2022/11/17 02:47:18;;;;;;;4.47;2.90;;;13.40;99.90;;;;;;4933294;28;20435;-67
2022/11/17 02:49:48;;;;;;;5.53;3.17;;;13.40;99.90;;;;;;4937942;28;20512;-68
2022/11/17 02:52:16;;;;;;;4.63;2.60;;;13.40;99.90;;;;;;4957448;28;20806;-68
2022/11/17 02:54:42;;;;;;;3.80;2.83;;;13.40;99.90;;;;;;4939169;28;20455;-68
2022/11/17 02:57:29;;;;;;;4.90;2.40;;;13.40;99.90;;;;;;4945498;28;20453;-68
2022/11/17 02:59:57;;;;;;;5.50;2.80;;;13.40;99.90;;;;;;4941587;28;20195;-68
2022/11/17 03:02:37;;;;;;;3.50;2.63;;;13.40;99.90;;;;;;4948732;28;20473;-68
2022/11/17 03:05:17;;;;;;;4.13;2.47;;;13.40;99.90;;;;;;4937899;28;20834;-68
2022/11/17 03:08:01;;;;;;;2.63;2.17;;;13.40;99.90;;;;;;4949881;28;20435;-68
2022/11/17 03:10:53;;;;;;;3.20;2.50;;;13.40;99.90;;;;;;4949428;28;20415;-68
2022/11/17 03:13:29;;;;;;;3.40;2.37;;;13.40;99.90;;;;;;4942626;28;20438;-68
2022/11/17 03:16:30;;;;;;;2.80;2.03;;;13.40;99.90;;;;;;4940440;28;20441;-68
2022/11/17 03:19:20;;;;;;;3.40;2.50;;;13.40;99.90;;;;;;4972979;28;20453;-68
2022/11/17 03:21:52;;;;;;;4.07;2.70;;;13.40;99.90;;;;;;4940054;28;20506;-68
2022/11/17 03:24:48;;;;;;;5.00;2.60;;;13.40;99.90;;;;;;4941969;28;21001;-68
2022/11/17 03:27:23;;;;;;;2.70;2.40;;;13.40;99.90;;;;;;4941592;28;20435;-68
2022/11/17 03:29:54;;;;;;;2.93;2.40;;;13.40;99.90;;;;;;4946486;28;20454;-68
2022/11/17 03:32:22;;;;;;;3.47;2.50;;;13.30;99.90;;;;;;4944165;28;20450;-68
2022/11/17 03:34:54;;;;;;;4.20;2.77;;;13.30;99.90;;;;;;4950437;28;20795;-68
2022/11/17 03:37:22;;;;;;;2.90;2.10;;;13.30;99.90;;;;;;4945007;28;20419;-68
2022/11/17 03:39:54;;;;;;;4.70;2.50;;;13.30;99.90;;;;;;4951820;28;20439;-68
2022/11/17 03:42:25;;;;;;;2.93;2.33;;;13.30;99.90;;;;;;4942438;28;20478;-68
2022/11/17 03:44:55;;;;;;;7.37;3.03;;;13.30;99.90;;;;;;4950628;28;20543;-65
2022/11/17 03:47:25;;;;;;;3.97;2.50;;;13.30;99.90;;;;;;4949594;28;20869;-68
2022/11/17 03:49:53;;;;;;;3.90;2.60;;;13.30;99.90;;;;;;4940617;28;20930;-67
2022/11/17 03:52:20;;;;;;;3.07;2.10;;;13.30;99.90;;;;;;4942723;28;20963;-66
2022/11/17 03:54:46;;;;;;;3.20;2.50;;;13.20;99.90;;;;;;4949541;28;20438;-67
2022/11/17 03:57:37;;;;;;;4.30;2.50;;;13.10;99.90;;;;;;4942593;28;20471;-67
2022/11/17 04:00:06;;;;;;;4.60;2.60;;;13.10;99.90;;;;;;4951958;28;20480;-66
2022/11/17 04:02:31;;;;;;;4.23;2.37;;;13.10;99.90;;;;;;4939069;28;20502;-67
2022/11/17 04:05:06;;;;;;;6.43;2.57;;;13.10;99.90;;;;;;4952756;28;20466;-67
2022/11/17 04:07:39;;;;;;;3.43;2.30;;;13.10;99.90;;;;;;4941766;28;20179;-67
2022/11/17 04:10:06;;;;;;;2.57;2.10;;;13.10;99.90;;;;;;4947640;28;20933;-67
2022/11/17 04:18:00;;;;;;;3.37;2.23;;;13.10;99.90;;;;;;4951400;28;20425;-67
2022/11/17 04:20:34;;;;;;;3.00;2.40;;;13.10;99.90;;;;;;4940579;28;20455;-67
2022/11/17 04:23:07;;;;;;;3.47;2.70;;;13.10;99.90;;;;;;4947123;28;20483;-67
2022/11/17 04:28:36;;;;;;;3.57;2.37;;;13.00;99.90;;;;;;4941810;28;20462;-68
2022/11/17 04:31:29;;;;;;;2.93;2.00;;;13.00;99.90;;;;;;4949781;28;21199;-67
2022/11/17 04:34:00;;;;;;;3.33;2.13;;;13.00;99.90;;;;;;4940424;28;20954;-67
2022/11/17 04:36:31;;;;;;;2.87;2.23;;;13.00;99.90;;;;;;4937305;28;20506;-66
2022/11/17 04:38:58;;;;;;;2.30;1.87;;;12.90;99.90;;;;;;4942874;28;20455;-69
2022/11/17 04:44:11;;;;;;;6.43;2.60;;;13.00;99.90;;;;;;4952413;28;20515;-68
2022/11/17 04:46:38;;;;;;;2.20;1.70;;;13.00;99.90;;;;;;4944902;28;20947;-68
2022/11/17 04:49:05;;;;;;;2.33;2.13;;;13.00;99.90;;;;;;4943786;28;20442;-68
2022/11/17 04:51:31;;;;;;;2.63;1.73;;;13.00;99.90;;;;;;4946806;28;20850;-68
2022/11/17 04:53:57;;;;;;;3.00;1.53;;;12.90;99.90;;;;;;4955034;28;20444;-68
2022/11/17 04:56:24;;;;;;;2.77;1.83;;;12.90;99.90;;;;;;4948163;28;20587;-68
2022/11/17 04:58:50;;;;;;;3.80;1.80;;;12.80;99.90;;;;;;4946488;28;20426;-68
2022/11/17 05:01:17;;;;;;;2.70;1.80;;;12.90;99.90;;;;;;4948846;28;20555;-68
2022/11/17 05:03:47;;;;;;;3.03;1.67;;;13.00;99.90;;;;;;4946686;28;20908;-68
2022/11/17 05:06:16;;;;;;;1.93;1.37;;;13.10;99.90;;;;;;4947534;28;20894;-68
2022/11/17 05:08:43;;;;;;;1.80;1.30;;;13.10;99.90;;;;;;4944809;28;20426;-68
2022/11/17 05:13:55;;;;;;;2.30;1.47;;;13.20;99.90;;;;;;4942042;28;20434;-68
2022/11/17 05:19:09;;;;;;;2.00;1.50;;;13.30;99.90;;;;;;4940441;28;20896;-68
2022/11/17 05:21:34;;;;;;;2.43;1.50;;;13.30;99.90;;;;;;4950865;28;20488;-68
2022/11/17 05:24:00;;;;;;;5.37;1.30;;;13.30;99.90;;;;;;4951503;28;20979;-68
2022/11/17 05:26:32;;;;;;;2.47;1.40;;;13.30;99.90;;;;;;4956927;28;20262;-68
2022/11/17 05:28:59;;;;;;;2.73;1.40;;;13.20;99.90;;;;;;4950724;28;20728;-67
2022/11/17 05:31:26;;;;;;;2.97;1.50;;;13.30;99.90;;;;;;4948674;28;20468;-68
2022/11/17 05:33:52;;;;;;;3.10;1.57;;;13.30;99.90;;;;;;4956044;28;20431;-68
2022/11/17 05:36:18;;;;;;;1.80;1.30;;;13.30;99.90;;;;;;4944240;28;20430;-69
2022/11/17 05:38:46;;;;;;;3.50;1.50;;;13.30;99.90;;;;;;4944378;28;20458;-69
2022/11/17 05:41:12;;;;;;;1.90;1.40;;;13.20;99.90;;;;;;4942875;28;20799;-66
2022/11/17 05:43:37;;;;;;;3.20;1.27;;;13.30;99.90;;;;;;4944883;28;20419;-69
2022/11/17 05:46:03;;;;;;;2.13;1.30;;;13.30;99.90;;;;;;4944038;28;20431;-67
2022/11/17 05:48:29;;;;;;;3.50;1.30;;;13.30;99.90;;;;;;4950214;28;20245;-69
2022/11/17 05:50:55;;;;;;;3.83;1.50;;;13.20;99.90;;;;;;4953614;28;21070;-68
2022/11/17 05:53:23;;;;;;;2.97;1.50;;;13.20;99.90;;;;;;4947186;28;20229;-68
2022/11/17 05:55:49;;;;;;;1.93;1.40;;;13.30;99.90;;;;;;4939897;28;20446;-68
2022/11/17 05:58:25;;;;;;;2.80;1.60;;;13.30;99.90;;;;;;4944548;28;20442;-67
2022/11/17 06:00:55;;;;;;;2.60;1.53;;;13.30;99.90;;;;;;4941900;28;20459;-68
2022/11/17 06:03:33;;;;;;;5.80;1.80;;;13.40;99.90;;;;;;4947142;28;20472;-68
2022/11/17 06:05:58;;;;;;;2.67;1.60;;;13.40;99.90;;;;;;4943175;28;20530;-68
2022/11/17 06:08:25;;;;;;;2.80;1.77;;;13.30;99.90;;;;;;4964917;28;20860;-67
2022/11/17 06:10:51;;;;;;;2.00;1.47;;;13.30;99.90;;;;;;4943867;28;20203;-67
2022/11/17 06:13:18;;;;;;;3.53;1.50;;;13.30;99.90;;;;;;4963684;28;20785;-68
2022/11/17 06:15:44;;;;;;;3.80;1.47;;;13.30;99.90;;;;;;4939194;28;20191;-68
2022/11/17 06:18:15;;;;;;;2.77;1.70;;;13.30;99.90;;;;;;4942532;28;20770;-68
2022/11/17 06:20:47;;;;;;;2.47;1.60;;;13.20;99.90;;;;;;4945109;28;20214;-68
2022/11/17 06:23:14;;;;;;;3.53;1.40;;;13.30;99.90;;;;;;4943360;28;20482;-69
2022/11/17 06:25:40;;;;;;;2.40;1.50;;;13.40;99.90;;;;;;4939519;28;20453;-68
2022/11/17 06:28:13;;;;;;;2.63;1.40;;;13.40;99.90;;;;;;4943295;28;20796;-68
2022/11/17 06:30:39;;;;;;;9.37;1.70;;;13.30;99.90;;;;;;4943975;28;20474;-68
2022/11/17 06:33:07;;;;;;;5.10;1.77;;;13.30;99.90;;;;;;4938475;28;20577;-68
2022/11/17 06:35:34;;;;;;;4.73;1.67;;;13.40;99.90;;;;;;4942855;28;20454;-68
2022/11/17 06:38:00;;;;;;;4.53;1.30;;;13.30;99.90;;;;;;4945680;28;20785;-68
2022/11/17 06:40:26;;;;;;;4.13;1.80;;;13.40;99.90;;;;;;4947963;28;20445;-67
2022/11/17 06:43:08;;;;;;;7.10;1.53;;;13.40;99.90;;;;;;4941543;28;20469;-69
2022/11/17 06:45:36;;;;;;;5.93;1.50;;;13.50;99.90;;;;;;4939433;28;20493;-67
2022/11/17 06:48:02;;;;;;;2.70;1.40;;;13.50;99.90;;;;;;4939320;28;20427;-67
2022/11/17 06:50:27;;;;;;;2.77;1.70;;;13.40;99.90;;;;;;4941288;28;20576;-67
2022/11/17 06:53:01;;;;;;;3.20;1.57;;;13.40;99.90;;;;;;4942715;28;20514;-67
2022/11/17 06:55:27;;;;;;;3.30;1.73;;;13.40;99.90;;;;;;4943846;28;20324;-68
2022/11/17 06:58:01;;;;;;;4.50;1.90;;;13.50;99.90;;;;;;4940298;28;20930;-67
2022/11/17 07:00:28;;;;;;;6.13;1.73;;;13.50;99.90;;;;;;4941047;28;20454;-67
2022/11/17 07:03:05;;;;;;;9.00;2.23;;;13.50;99.90;;;;;;4940506;28;20805;-67
2022/11/17 07:05:32;;;;;;;6.60;2.20;;;13.50;99.90;;;;;;4925437;28;20771;-67
2022/11/17 07:08:00;;;;;;;2.30;1.40;;;13.60;99.90;;;;;;4939879;28;20497;-68
2022/11/17 07:10:26;;;;;;;2.20;1.60;;;13.70;99.90;;;;;;4939486;28;20463;-68
2022/11/17 07:12:52;;;;;;;2.10;1.17;;;13.60;99.90;;;;;;4938740;28;21181;-66
2022/11/17 07:15:18;;;;;;;2.70;1.90;;;13.60;99.90;;;;;;4936070;28;20450;-67
2022/11/17 07:17:44;;;;;;;4.50;2.00;;;13.60;99.90;;;;;;4943196;28;20440;-67
2022/11/17 07:20:10;;;;;;;7.93;1.83;;;13.70;99.90;;;;;;4966427;22;20227;-66
2022/11/17 07:22:36;;;;;;;2.40;1.70;;;13.60;99.90;;;;;;4955996;28;20530;-67
2022/11/17 07:25:03;;;;;;;4.03;1.90;;;13.70;99.90;;;;;;4953803;28;20454;-67
2022/11/17 07:27:29;;;;;;;2.23;1.60;;;13.70;99.90;;;;;;4958566;28;20445;-67
2022/11/17 07:29:55;;;;;;;3.10;1.43;;;13.70;99.90;;;;;;4957339;28;20450;-67
2022/11/17 07:32:21;;;;;;;6.33;2.10;;;13.70;99.90;;;;;;4958689;28;20426;-67
2022/11/17 07:34:46;;;;;;;3.23;1.83;;;13.80;99.90;;;;;;4957324;28;20496;-67
2022/11/17 07:37:12;;;;;;;6.00;2.10;;;13.70;99.90;;;;;;4961811;28;20187;-66
2022/11/17 07:39:38;;;;;;;6.17;1.73;;;13.80;99.90;;;;;;4957861;28;20209;-66
2022/11/17 07:42:03;;;;;;;3.30;1.70;;;13.80;99.90;;;;;;4952815;28;20215;-67
2022/11/17 07:44:29;;;;;;;4.73;2.00;;;13.80;99.90;;;;;;4962087;28;20179;-66
2022/11/17 07:46:54;;;;;;;3.03;1.70;;;13.90;99.90;;;;;;4957273;28;20189;-66
2022/11/17 07:49:20;;;;;;;3.23;1.70;;;13.90;99.90;;;;;;4959577;28;20198;-66
2022/11/17 07:51:46;;;;;;;5.20;2.00;;;13.90;99.90;;;;;;4960078;28;20261;-66
2022/11/17 07:54:11;;;;;;;3.13;1.50;;;13.90;99.90;;;;;;4955890;28;20269;-67
2022/11/17 07:56:37;;;;;;;2.50;1.50;;;13.90;99.90;;;;;;4957019;28;20197;-66
2022/11/17 07:59:02;;;;;;;6.30;1.70;;;13.90;99.90;;;;;;4958188;28;20187;-66
2022/11/17 08:01:28;;;;;;;4.63;1.70;;;13.90;99.90;;;;;;4956394;28;20215;-66
2022/11/17 08:03:54;;;;;;;6.20;1.70;;;13.90;99.90;;;;;;4959413;28;20186;-66
2022/11/17 08:06:20;;;;;;;3.83;1.40;;;13.90;99.90;;;;;;4956194;28;20445;-66
2022/11/17 08:08:47;;;;;;;3.20;1.60;;;13.90;99.90;;;;;;4956333;28;20534;-67
2022/11/17 08:11:12;;;;;;;3.00;1.80;;;14.00;99.90;;;;;;4960154;28;20571;-68
2022/11/17 08:13:39;;;;;;;3.40;1.83;;;14.00;99.90;;;;;;4959504;28;20436;-68
2022/11/17 08:16:06;;;;;;;3.10;1.70;;;13.90;99.90;;;;;;4959407;28;21117;-68
2022/11/17 08:18:32;;;;;;;3.13;1.50;;;13.90;99.90;;;;;;4960209;28;21004;-66
2022/11/17 08:21:08;;;;;;;5.27;1.63;;;13.90;99.90;;;;;;4957880;28;20504;-67
2022/11/17 08:23:34;;;;;;;3.40;1.70;;;13.90;99.90;;;;;;4958402;28;20237;-67
2022/11/17 08:26:01;;;;;;;4.13;1.63;;;13.90;99.90;;;;;;4959520;28;20451;-67
2022/11/17 08:28:26;;;;;;;2.10;1.60;;;14.00;99.90;;;;;;4959103;28;20937;-68
2022/11/17 08:30:52;;;;;;;3.60;1.60;;;14.00;99.90;;;;;;4958381;28;20442;-67
2022/11/17 08:33:18;;;;;;;2.07;1.30;;;14.00;99.90;;;;;;4957613;28;20201;-68
2022/11/17 08:35:43;;;;;;;5.30;1.70;;;14.10;99.90;;;;;;4958389;28;20446;-67
2022/11/17 08:38:11;;;;;;;3.77;1.50;;;14.10;99.90;;;;;;4955799;28;20201;-68
2022/11/17 08:40:37;;;;;;;5.53;1.50;;;14.20;99.90;;;;;;4954159;28;20214;-66
2022/11/17 08:43:03;;;;;;;5.03;1.97;;;14.40;99.90;;;;;;4956635;28;20470;-67
2022/11/17 08:45:28;;;;;;;3.10;1.47;;;14.40;99.90;;;;;;4955465;28;20977;-69
2022/11/17 08:47:55;;;;;;;3.53;1.20;;;14.30;99.90;;;;;;4964709;28;20376;-67
2022/11/17 08:50:20;;;;;;;3.50;1.43;;;14.40;99.90;;;;;;4956671;28;20283;-69
2022/11/17 08:52:47;;;;;;;2.73;1.40;;;14.40;99.90;;;;;;4964369;28;20426;-67
2022/11/17 08:55:12;;;;;;;4.73;1.67;;;14.50;99.90;;;;;;4955170;28;20611;-67
2022/11/17 08:57:38;;;;;;;2.37;1.40;;;14.40;99.90;;;;;;4958896;28;20449;-66
2022/11/17 09:00:05;;;;;;;3.90;1.47;;;14.50;99.90;;;;;;4954537;28;20222;-66
2022/11/17 09:02:34;;;;;;;3.80;1.70;;;14.40;99.90;;;;;;4972411;28;20245;-66
2022/11/17 09:04:59;;;;;;;4.73;1.50;;;14.50;99.90;;;;;;4956855;28;20427;-66
2022/11/17 09:07:25;;;;;;;3.60;1.67;;;14.60;99.90;;;;;;4954754;28;20813;-67
2022/11/17 09:09:50;;;;;;;10.03;2.07;;;14.60;99.90;;;;;;4959045;28;20789;-66
2022/11/17 09:12:17;;;;;;;3.20;1.50;;;14.60;99.90;;;;;;4956293;28;20183;-69
2022/11/17 09:14:43;;;;;;;6.23;1.50;;;14.60;99.90;;;;;;4956169;28;20195;-67
2022/11/17 09:17:08;;;;;;;3.70;1.97;;;14.60;99.90;;;;;;4954296;28;20707;-67
2022/11/17 09:19:34;;;;;;;10.17;1.60;;;14.60;99.90;;;;;;4959491;28;20284;-68
2022/11/17 09:21:59;;;;;;;3.10;1.70;;;14.70;99.90;;;;;;4955160;28;20211;-66
2022/11/17 09:24:25;;;;;;;3.90;1.50;;;14.60;99.90;;;;;;4955563;28;20320;-66
2022/11/17 09:26:56;;;;;;;3.03;1.63;;;14.60;99.90;;;;;;4954786;28;20232;-66
2022/11/17 09:29:22;;;;;;;6.17;1.73;;;14.50;99.90;;;;;;4950747;28;20438;-67
2022/11/17 09:31:47;;;;;;;3.70;1.37;;;14.60;99.90;;;;;;4955540;28;20426;-67
2022/11/17 09:34:13;;;;;;;2.73;1.93;;;14.80;99.90;;;;;;4959135;28;20468;-67
2022/11/17 09:36:38;;;;;;;5.10;1.40;;;14.80;99.90;;;;;;4959677;28;20235;-66
2022/11/17 09:39:04;;;;;;;5.77;1.83;;;14.80;99.90;;;;;;4960525;28;20230;-66
2022/11/17 09:41:43;;;;;;;3.33;1.40;;;14.80;99.90;;;;;;4960196;28;20241;-67
2022/11/17 09:44:38;;;;;;;3.03;1.60;;;14.80;99.90;;;;;;4966448;28;20202;-67
2022/11/17 09:47:27;;;;;;;3.00;1.37;;;14.80;99.90;;;;;;4957471;28;20576;-67
2022/11/17 09:50:14;;;;;;;3.00;1.50;;;14.80;99.90;;;;;;4959003;28;20934;-67
2022/11/17 09:53:07;;;;;;;2.47;1.50;;;14.70;99.90;;;;;;4960750;28;20436;-67
2022/11/17 09:55:41;;;;;;;4.80;1.37;;;14.60;99.90;;;;;;4956821;28;20481;-67
2022/11/17 09:58:12;;;;;;;4.40;1.80;;;14.60;99.90;;;;;;4961753;28;20434;-67
2022/11/17 10:00:42;;;;;;;3.60;1.70;;;14.70;99.90;;;;;;4955852;28;20843;-67
2022/11/17 10:03:32;;;;;;;3.80;1.87;;;14.60;99.90;;;;;;4960871;28;20504;-67
2022/11/17 10:06:00;;;;;;;3.77;1.57;;;14.60;99.90;;;;;;4958270;28;20521;-67
2022/11/17 10:08:37;;;;;;;4.37;1.70;;;14.60;99.90;;;;;;4972515;28;20564;-67
2022/11/17 10:11:30;;;;;;;7.03;1.90;;;14.60;99.90;;;;;;4959080;28;20446;-67
2022/11/17 10:13:49;;;;;;;7.70;2.50;;;14.60;99.90;;;;;;4969651;28;20441;-67
2022/11/17 10:16:14;;;;;;;5.23;2.00;;;14.70;99.90;;;;;;4968317;28;20754;-67
2022/11/17 10:18:40;;;;;;;5.40;1.60;;;14.80;99.90;;;;;;4960211;28;20541;-67
2022/11/17 10:21:08;;;;;;;6.73;1.90;;;14.90;99.90;;;;;;4958952;28;20242;-67
2022/11/17 10:23:39;;;;;;;7.03;1.70;;;14.90;99.90;;;;;;4959526;28;20309;-67
2022/11/17 10:26:10;;;;;;;5.13;1.73;;;15.00;99.90;;;;;;4956334;28;20536;-68
2022/11/17 10:28:36;;;;;;;6.47;2.53;;;14.90;99.90;;;;;;4959937;28;20527;-67
2022/11/17 10:31:38;;;;;;;5.23;1.80;;;14.90;99.90;;;;;;4957082;28;20933;-68
2022/11/17 10:34:03;;;;;;;5.77;2.10;;;14.80;99.90;;;;;;4942569;28;20234;-68
2022/11/17 10:36:30;;;;;;;7.30;2.20;;;14.80;99.90;;;;;;4957384;28;20454;-68
2022/11/17 10:38:59;;;;;;;4.13;1.70;;;14.70;99.90;;;;;;4956959;28;20190;-68
2022/11/17 10:41:38;;;;;;;4.77;1.93;;;14.70;99.90;;;;;;4956184;28;20473;-68
2022/11/17 10:44:11;;;;;;;4.43;2.23;;;14.60;99.90;;;;;;4962977;28;20437;-68
2022/11/17 10:46:56;;;;;;;4.43;1.70;;;14.50;99.90;;;;;;4956297;28;20500;-68
2022/11/17 10:49:24;;;;;;;3.30;1.40;;;14.50;99.90;;;;;;4958113;28;20488;-67
2022/11/17 10:52:17;;;;;;;8.23;1.80;;;14.40;99.90;;;;;;4956536;28;20487;-67
2022/11/17 10:54:43;;;;;;;7.63;3.00;;;14.30;99.90;;;;;;4957120;28;20522;-67
2022/11/17 10:57:21;;;;;;;12.20;2.43;;;14.40;99.90;;;;;;4956427;28;20962;-67
2022/11/17 10:59:52;;;;;;;3.53;1.63;;;14.30;99.90;;;;;;4958420;28;20578;-67
2022/11/17 11:02:34;;;;;;;6.60;1.60;;;14.30;99.90;;;;;;4958095;28;20544;-67
2022/11/17 11:05:09;;;;;;;4.33;1.67;;;14.40;99.90;;;;;;4959399;28;20426;-67
2022/11/17 11:07:35;;;;;;;5.73;1.67;;;14.40;99.90;;;;;;4956141;28;21027;-68
2022/11/17 11:10:03;;;;;;;7.60;1.60;;;14.40;99.90;;;;;;4956265;28;20442;-67
2022/11/17 11:12:58;;;;;;;4.30;1.73;;;14.50;99.90;;;;;;4958610;28;20992;-67
2022/11/17 11:15:28;;;;;;;3.70;1.80;;;14.40;99.90;;;;;;4960188;28;20422;-67
2022/11/17 11:17:54;;;;;;;5.13;1.50;;;14.40;99.90;;;;;;4957679;28;20511;-67
2022/11/17 11:20:30;;;;;;;5.77;1.93;;;14.40;99.90;;;;;;4962015;28;20465;-68
2022/11/17 11:23:18;;;;;;;4.20;1.83;;;14.50;99.90;;;;;;4959291;28;20707;-68
2022/11/17 11:25:50;;;;;;;3.20;1.50;;;14.60;99.90;;;;;;4973243;28;21723;-68
2022/11/17 11:28:32;;;;;;;4.83;1.80;;;14.70;99.90;;;;;;4962297;28;20434;-68
2022/11/17 11:31:13;;;;;;;4.47;1.80;;;14.80;99.90;;;;;;4956962;28;20449;-68
2022/11/17 11:33:46;;;;;;;5.87;1.80;;;14.90;99.90;;;;;;4958107;28;20446;-67
2022/11/17 11:36:43;;;;;;;3.60;1.50;;;14.90;99.90;;;;;;4956677;28;20419;-68
2022/11/17 11:39:28;;;;;;;4.57;1.90;;;15.00;99.90;;;;;;4956437;28;20438;-68
2022/11/17 11:42:31;;;;;;;5.03;1.47;;;15.10;99.90;;;;;;4962536;28;20469;-67
2022/11/17 11:45:20;;;;;;;8.00;3.10;;;15.00;99.90;;;;;;4952865;28;20430;-67
2022/11/17 11:47:54;;;;;;;5.33;1.90;;;15.00;99.90;;;;;;4948023;28;20461;-68
2022/11/17 11:50:23;;;;;;;8.93;2.30;;;15.10;99.90;;;;;;4954296;28;20863;-67
2022/11/17 11:53:27;;;;;;;5.70;1.60;;;15.20;99.90;;;;;;4953803;28;20487;-68
2022/11/17 11:56:23;;;;;;;4.23;1.93;;;15.40;99.90;;;;;;4956278;28;20523;-67
2022/11/17 11:58:59;;;;;;;3.40;1.73;;;15.50;99.90;;;;;;4948730;28;20438;-67
2022/11/17 12:01:26;;;;;;;4.80;2.20;;;15.60;99.90;;;;;;4954777;28;20619;-67
2022/11/17 12:04:23;;;;;;;6.47;2.77;;;15.50;99.90;;;;;;4957611;28;20427;-67
2022/11/17 12:06:58;;;;;;;5.70;2.47;;;15.40;99.90;;;;;;4954891;28;20491;-67
2022/11/17 12:09:45;;;;;;;5.73;2.00;;;15.50;99.90;;;;;;4956251;28;20434;-67
2022/11/17 12:12:16;;;;;;;4.07;2.03;;;15.50;99.90;;;;;;4958190;28;20686;-67
2022/11/17 12:15:07;;;;;;;5.33;2.10;;;15.60;99.90;;;;;;4956069;28;20449;-67
2022/11/17 12:17:33;;;;;;;8.20;1.90;;;15.60;99.90;;;;;;4957033;28;20488;-67
2022/11/17 12:20:01;;;;;;;7.10;2.77;;;15.50;99.90;;;;;;4958445;28;20480;-67
2022/11/17 12:22:32;;;;;;;7.70;2.60;;;15.40;99.90;;;;;;4957569;28;20853;-67
2022/11/17 12:25:03;;;;;;;7.50;2.60;;;15.40;99.90;;;;;;4959244;28;20797;-67
2022/11/17 12:27:34;;;;;;;4.43;1.80;;;15.40;99.90;;;;;;4953688;28;20430;-67
2022/11/17 12:30:05;;;;;;;4.63;1.87;;;15.70;99.90;;;;;;4958944;28;20541;-67
2022/11/17 12:32:43;;;;;;;8.57;2.27;;;16.00;99.90;;;;;;4958212;28;20429;-67
2022/11/17 12:35:25;;;;;;;5.77;1.90;;;16.10;99.90;;;;;;4955991;28;21383;-67
2022/11/17 12:38:16;;;;;;;4.80;1.90;;;16.30;99.90;;;;;;4957084;28;20834;-67
2022/11/17 12:40:50;;;;;;;9.30;2.00;;;16.20;99.90;;;;;;4994011;28;20486;-67
2022/11/17 12:43:15;;;;;;;6.23;2.07;;;16.10;99.90;;;;;;4956857;28;20508;-67
2022/11/17 12:45:58;;;;;;;10.77;2.90;;;15.90;99.90;;;;;;4956795;28;20434;-67
2022/11/17 12:48:31;;;;;;;5.93;2.03;;;15.80;99.90;;;;;;4953516;28;20187;-67
2022/11/17 12:51:09;;;;;;;7.83;1.80;;;15.60;99.90;;;;;;4959198;28;20872;-67
2022/11/17 12:53:47;;;;;;;5.67;1.87;;;15.30;99.90;;;;;;4954831;28;20779;-67
2022/11/17 12:57:00;;;;;;;5.47;1.80;;;15.10;99.90;;;;;;4956949;28;20436;-67
2022/11/17 12:59:53;;;;;;;3.70;1.67;;;14.90;99.90;;;;;;4962604;28;20469;-67
2022/11/17 13:02:38;;;;;;;7.30;1.60;;;14.80;99.90;;;;;;4957798;28;20561;-67
2022/11/17 13:05:14;;;;;;;3.77;1.40;;;14.80;99.90;;;;;;4953470;28;20450;-67
2022/11/17 13:07:40;;;;;;;3.60;2.07;;;14.60;99.90;;;;;;4957026;28;20530;-67
2022/11/17 13:10:06;;;;;;;3.00;1.60;;;14.60;99.90;;;;;;4960433;28;20449;-67
2022/11/17 13:12:32;;;;;;;5.07;1.70;;;14.50;99.90;;;;;;4974756;28;20218;-67
2022/11/17 13:15:03;;;;;;;5.87;1.67;;;14.50;99.90;;;;;;4958668;28;20215;-67
2022/11/17 13:17:38;;;;;;;3.50;1.70;;;14.60;99.90;;;;;;4957633;28;20446;-67
2022/11/17 13:20:15;;;;;;;4.87;1.80;;;14.60;99.90;;;;;;4974539;23;20469;-69
2022/11/17 13:22:41;;;;;;;5.67;1.43;;;14.60;99.90;;;;;;4960275;28;20857;-69
2022/11/17 13:25:22;;;;;;;4.23;1.60;;;14.70;99.90;;;;;;4957812;28;20441;-70
2022/11/17 13:27:48;;;;;;;3.97;1.70;;;14.80;99.90;;;;;;4958380;28;20656;-70
2022/11/17 13:30:20;;;;;;;4.20;1.90;;;14.90;99.90;;;;;;4957028;28;20435;-69
2022/11/17 13:32:46;;;;;;;4.37;1.60;;;14.80;99.90;;;;;;4943050;28;20202;-69